Aeroboteco Virtual Airlines! Uma nuvem a frente.



 INFORMAÇÕES METEOROLÓGICAS
METAR FOR SKPC
ADDS - METARS form results

(1938 UTC 05 June 2020)
Data provider http://aviationweather.gov/metar/data/
 
METAR text: SKPC 051900Z 34004KT 9999 FEW017 BKN070 28/24 A2984
Conditions at: SKPC (PUERTO CARRENO , CO) observed 1900 UTC 05 June 2020
Temperature: 28.0°C (82°F)
Dewpoint: 24.0°C (75°F) [RH = 79%]
Pressure (altimeter): 29.84 inches Hg (1010.6 mb)
Winds: from the NNW (340 degrees) at 5 MPH (4 knots; 2.1 m/s)
Visibility: 6 or more miles (10+ km)
Ceiling: 7000 feet AGL
Clouds: few clouds at 1700 feet AGL
broken clouds at 7000 feet AGL
Weather: no significant weather observed at this time

 MAPA DO AEROPORTO

 INFORMAÇÕES DA PISTA
Pista 07 Tamanho da pista 5907 ft Largura da pista 69 ft
Elevação da pista 180 ft Ranhura da pista 0 ft Proa da pista 60
Pista 25 Tamanho da pista 5907 ft Largura da pista 69 ft
Elevação da pista 180 ft Ranhura da pista 0 ft Proa da pista 240

 FREQUÊNCIAS DO AEROPORTO
Tipo RDO Nome RDO Frequência 348.8 MHZ
Tipo TWR Nome TWR Frequência 118.1 MHZ

 AUXÍLIOS DE NAVEGAÇÃO PRÓXIMOS AO AEROPORTO
Tipo NDB Nome Puerto Carreno Frequência 353 KHZ
Tipo VOR-DME Nome Puerto Carreno Frequência 112900 KHZ